Terminal Aerodrome Forecast
Issued by NWS Paducah, KY

Home | Current Version | Previous Version | Text Only | Print | Product List | Glossary On
Versions: 1 2 3 4 5 6 7 8 9 10 11 12 13 14 15 16 17 18 19 20 21
000
FTUS43 KPAH 022300
TAFPAH
TAF
KPAH 022330Z 0300/0324 31004KT P6SM FEW040 SCT250
     FM030300 00000KT P6SM SCT250
     FM030600 00000KT 3SM BR SKC
      TEMPO 0308/0312 3/4SM BR SCT002
     FM031300 00000KT 4SM BR SKC
     FM031500 18005KT P6SM SCT040=

USA.gov is the U.S. government's official web portal to all federal, state and local government web resources and services.